METAR Data
IDs: Format: Raw Decoded Include TAF

Data at: 1628 UTC 18 Feb 2019

METAR for:KOLZ (Oelwein Muni, IA, US)
Text:KOLZ 181615Z AUTO 32005KT 10SM CLR M12/M14 A3039 RMK AO2 PWINO
Temperature:-12.0°C ( 10°F)
Dewpoint:-14.0°C ( 7°F) [RH = 85%]
Pressure (altimeter):30.39 inches Hg (1029.2 mb)
Winds:from the NW (320 degrees) at 6 MPH (5 knots; 2.6 m/s)
Visibility:10 or more sm (16+ km)
Ceiling:at least 12,000 feet AGL
Clouds:sky clear below 12,000 feet AGL
QC Flag:automated observation with no human augmentation